createdAt,value
2023-05-08T00:02:46.101Z,6.73
2023-05-08T00:07:48.395Z,6.57
2023-05-08T00:12:51.476Z,6.97
2023-05-08T00:17:53.277Z,6.80
2023-05-08T00:22:55.036Z,6.60
2023-05-08T00:27:58.188Z,6.90
2023-05-08T00:33:00.246Z,7.17
2023-05-08T00:38:02.022Z,6.30
2023-05-08T00:43:05.069Z,6.70
2023-05-08T00:48:06.826Z,6.30
2023-05-08T00:53:08.546Z,6.40
2023-05-08T00:58:11.648Z,6.30
2023-05-08T01:03:14.125Z,6.60
2023-05-08T01:08:16.063Z,6.60
2023-05-08T01:13:23.626Z,6.37
2023-05-08T01:18:28.137Z,6.53
2023-05-08T01:23:40.218Z,6.23
2023-05-08T01:28:54.808Z,6.37
2023-05-08T01:34:01.856Z,6.43
2023-05-08T01:39:08.537Z,6.23
2023-05-08T01:44:12.527Z,6.77
2023-05-08T01:49:18.047Z,6.60
2023-05-08T01:54:21.071Z,7.23
2023-05-08T01:59:23.656Z,7.40
2023-05-08T02:04:27.132Z,7.40
2023-05-08T02:09:28.929Z,7.70
2023-05-08T02:14:30.638Z,7.70
2023-05-08T02:19:33.647Z,7.80
2023-05-08T02:24:35.580Z,7.17
2023-05-08T02:29:37.607Z,8.00
2023-05-08T02:34:45.176Z,7.80
2023-05-08T02:39:53.984Z,7.10
2023-05-08T02:44:56.122Z,7.70
2023-05-08T02:50:02.445Z,6.87
2023-05-08T02:55:06.936Z,8.30
2023-05-08T03:00:12.971Z,7.57
2023-05-08T03:05:17.577Z,7.57
2023-05-08T03:10:19.332Z,7.53
2023-05-08T03:15:23.995Z,7.80
2023-05-08T03:20:27.188Z,6.93
2023-05-08T03:25:29.250Z,7.57
2023-05-08T03:30:31.355Z,7.53
2023-05-08T03:35:39.459Z,7.40
2023-05-08T03:40:42.796Z,7.70
2023-05-08T03:45:45.291Z,7.60
2023-05-08T03:50:48.566Z,7.60
2023-05-08T03:55:50.647Z,7.83
2023-05-08T04:00:58.778Z,7.10
2023-05-08T04:06:06.836Z,7.50
2023-05-08T04:11:12.090Z,8.20
2023-05-08T04:16:16.526Z,7.07
2023-05-08T04:21:20.506Z,7.53
2023-05-08T04:26:22.586Z,6.83
2023-05-08T04:31:26.762Z,7.60
2023-05-08T04:36:30.746Z,7.40
2023-05-08T04:41:35.342Z,6.00
2023-05-08T04:46:37.760Z,7.40
2023-05-08T04:51:41.131Z,7.70
2023-05-08T04:56:43.078Z,8.13
2023-05-08T05:01:45.934Z,7.10
2023-05-08T05:06:49.296Z,6.73
2023-05-08T05:11:51.159Z,6.93
2023-05-08T05:16:53.519Z,6.93
2023-05-08T05:21:56.688Z,7.17
2023-05-08T05:26:58.980Z,6.87
2023-05-08T05:32:01.757Z,6.80
2023-05-08T05:37:05.048Z,7.37
2023-05-08T05:42:07.380Z,7.03
2023-05-08T05:47:10.648Z,7.57
2023-05-08T05:52:15.262Z,7.20
2023-05-08T05:57:17.700Z,8.00
2023-05-08T06:02:20.363Z,8.20
2023-05-08T06:07:23.720Z,7.53
2023-05-08T06:12:25.692Z,7.20
2023-05-08T06:17:27.833Z,7.90
2023-05-08T06:22:31.519Z,8.30
2023-05-08T06:27:34.659Z,7.73
2023-05-08T06:32:36.565Z,7.67
2023-05-08T06:37:39.907Z,8.90
2023-05-08T06:42:41.631Z,8.20
2023-05-08T06:47:43.363Z,8.90
2023-05-08T06:52:46.406Z,8.40
2023-05-08T06:57:48.085Z,9.30
2023-05-08T07:02:49.909Z,9.43
2023-05-08T07:07:54.231Z,10.43
2023-05-08T07:12:56.024Z,11.10
2023-05-08T07:17:57.823Z,11.23
2023-05-08T07:23:01.180Z,11.73
2023-05-08T07:28:02.876Z,11.47
2023-05-08T07:33:04.827Z,11.50
2023-05-08T07:38:07.972Z,11.50
2023-05-08T07:43:09.744Z,11.90
2023-05-08T07:48:11.847Z,9.93
2023-05-08T07:53:15.131Z,9.23
2023-05-08T07:58:16.840Z,8.77
2023-05-08T08:03:18.781Z,8.80
2023-05-08T08:08:21.961Z,8.50
2023-05-08T08:13:23.706Z,7.73
2023-05-08T08:18:25.565Z,8.20
2023-05-08T08:23:28.595Z,6.80
2023-05-08T08:28:30.377Z,7.50
2023-05-08T08:33:32.073Z,7.83
2023-05-08T08:38:35.078Z,6.90
2023-05-08T08:43:39.750Z,7.90
2023-05-08T08:48:43.614Z,7.30
2023-05-08T08:53:46.812Z,6.30
2023-05-08T08:58:51.889Z,7.10
2023-05-08T09:03:53.770Z,5.87
2023-05-08T09:08:57.946Z,6.43
2023-05-08T09:13:59.627Z,6.63
2023-05-08T09:19:03.338Z,6.43
2023-05-08T09:24:07.127Z,6.90
2023-05-08T09:29:10.192Z,6.20
2023-05-08T09:34:23.858Z,6.13
2023-05-08T09:39:26.884Z,5.27
2023-05-08T09:44:28.693Z,5.97
2023-05-08T09:49:30.415Z,5.20
2023-05-08T09:54:33.492Z,5.33
2023-05-08T09:59:35.176Z,5.90
2023-05-08T10:04:37.512Z,5.90
2023-05-08T10:09:50.385Z,5.20
2023-05-08T10:14:52.677Z,4.63
2023-05-08T10:19:56.414Z,5.03
2023-05-08T10:24:59.541Z,4.90
2023-05-08T10:30:02.443Z,4.70
2023-05-08T10:35:05.032Z,4.38
2023-05-08T10:40:08.872Z,4.80
2023-05-08T10:45:11.012Z,4.55
2023-05-08T10:50:19.237Z,4.47
2023-05-08T10:55:25.535Z,4.00
2023-05-08T11:00:31.369Z,4.40
2023-05-08T11:05:44.642Z,4.70
2023-05-08T11:10:49.864Z,4.90
2023-05-08T11:15:51.699Z,4.90
2023-05-08T11:20:58.711Z,5.00
2023-05-08T11:26:02.675Z,5.33
2023-05-08T11:31:04.816Z,6.60
2023-05-08T11:36:13.355Z,5.67
2023-05-08T11:41:21.989Z,5.20
2023-05-08T11:46:23.813Z,4.40
2023-05-08T11:51:25.566Z,4.50
2023-05-08T11:56:28.621Z,5.10
2023-05-08T12:01:30.956Z,4.43
2023-05-08T12:06:34.764Z,4.83
2023-05-08T12:11:39.166Z,4.73
2023-05-08T12:16:40.988Z,4.40
2023-05-08T12:21:47.368Z,4.70
2023-05-08T12:26:53.452Z,4.43
2023-05-08T12:31:55.225Z,3.67
2023-05-08T12:37:03.323Z,4.20
2023-05-08T12:42:06.490Z,4.30
2023-05-08T12:47:08.353Z,4.30
2023-05-08T12:52:12.842Z,3.87
2023-05-08T12:57:16.546Z,4.00
2023-05-08T13:02:19.154Z,3.60
2023-05-08T13:07:20.947Z,3.30
2023-05-08T13:12:23.987Z,3.63
2023-05-08T13:17:25.725Z,3.40
2023-05-08T13:22:27.720Z,3.47
2023-05-08T13:27:30.769Z,3.60
2023-05-08T13:32:32.583Z,3.60
2023-05-08T13:37:34.314Z,4.00
2023-05-08T13:42:37.431Z,3.60
2023-05-08T13:47:39.210Z,3.40
2023-05-08T13:52:40.993Z,3.90
2023-05-08T13:57:44.074Z,3.57
2023-05-08T14:02:46.524Z,3.40
2023-05-08T14:07:48.593Z,3.33
2023-05-08T14:12:51.803Z,3.83
2023-05-08T14:17:53.542Z,3.40
2023-05-08T14:22:59.577Z,3.17
2023-05-08T14:28:03.283Z,3.10
2023-05-08T14:33:05.013Z,3.20
2023-05-08T14:38:06.752Z,3.30
2023-05-08T14:43:09.788Z,2.87
2023-05-08T14:48:11.621Z,2.70
2023-05-08T14:53:13.513Z,2.80
2023-05-08T14:58:16.715Z,3.00
2023-05-08T15:03:18.694Z,2.90
2023-05-08T15:08:20.535Z,2.87
2023-05-08T15:13:23.600Z,2.90
2023-05-08T15:18:28.378Z,2.80
2023-05-08T15:23:30.098Z,2.87
2023-05-08T15:28:33.122Z,2.60
2023-05-08T15:33:34.817Z,3.07
2023-05-08T15:38:36.476Z,3.10
2023-05-08T15:43:39.610Z,3.20
2023-05-08T15:48:41.286Z,2.90
2023-05-08T15:53:42.958Z,3.40
2023-05-08T15:58:46.008Z,2.80
2023-05-08T16:03:47.713Z,2.57
2023-05-08T16:08:49.523Z,2.73
2023-05-08T16:13:52.500Z,2.50
2023-05-08T16:18:54.188Z,2.80
2023-05-08T16:23:55.936Z,2.73
2023-05-08T16:28:59.086Z,3.07
2023-05-08T16:34:00.758Z,2.77
2023-05-08T16:39:02.465Z,2.30
2023-05-08T16:44:05.582Z,2.37
2023-05-08T16:49:07.394Z,2.67
2023-05-08T16:54:09.082Z,2.80
2023-05-08T16:59:12.282Z,2.80
2023-05-08T17:04:14.002Z,2.87
2023-05-08T17:09:18.035Z,2.43
2023-05-08T17:14:21.132Z,2.43
2023-05-08T17:19:22.852Z,2.60
2023-05-08T17:24:24.579Z,2.67
2023-05-08T17:29:27.699Z,3.03
2023-05-08T17:34:29.447Z,2.60
2023-05-08T17:39:31.132Z,2.70
2023-05-08T17:44:34.182Z,2.93
2023-05-08T17:49:36.137Z,2.90
2023-05-08T17:54:37.946Z,2.60
2023-05-08T17:59:41.061Z,3.33
2023-05-08T18:04:42.806Z,2.70
2023-05-08T18:09:44.557Z,2.57
2023-05-08T18:14:47.982Z,2.63
2023-05-08T18:19:49.757Z,2.90
2023-05-08T18:24:52.864Z,2.77
2023-05-08T18:29:55.948Z,3.23
2023-05-08T18:34:57.651Z,2.60
2023-05-08T18:39:59.347Z,2.50
2023-05-08T18:45:02.987Z,2.47
2023-05-08T18:50:05.536Z,3.10
2023-05-08T18:55:07.873Z,15.17
2023-05-08T19:00:13.621Z,9.60
2023-05-08T19:05:15.668Z,7.23
2023-05-08T19:10:17.434Z,5.90
2023-05-08T19:15:20.579Z,4.40
2023-05-08T19:20:22.542Z,4.07
2023-05-08T19:25:24.553Z,4.00
2023-05-08T19:30:27.638Z,3.77
2023-05-08T19:35:29.442Z,3.47
2023-05-08T19:40:31.839Z,3.23
2023-05-08T19:45:34.938Z,2.67
2023-05-08T19:50:36.647Z,3.10
2023-05-08T19:55:38.363Z,3.20
2023-05-08T20:00:41.529Z,2.50
2023-05-08T20:05:43.284Z,2.63
2023-05-08T20:10:45.895Z,2.83
2023-05-08T20:15:49.018Z,3.10
2023-05-08T20:20:50.835Z,2.77
2023-05-08T20:25:54.172Z,2.77
2023-05-08T20:30:57.274Z,2.60
2023-05-08T20:35:59.038Z,2.80
2023-05-08T20:41:01.333Z,2.60
2023-05-08T20:46:04.758Z,3.00
2023-05-08T20:51:06.531Z,2.60
2023-05-08T20:56:08.642Z,2.60
2023-05-08T21:01:11.790Z,2.63
2023-05-08T21:06:13.630Z,2.70
2023-05-08T21:11:16.289Z,2.67
2023-05-08T21:16:19.344Z,2.47
2023-05-08T21:21:21.067Z,2.70
2023-05-08T21:26:23.658Z,2.80
2023-05-08T21:31:28.682Z,2.63
2023-05-08T21:36:32.079Z,2.47
2023-05-08T21:41:33.813Z,3.30
2023-05-08T21:46:36.885Z,3.00
2023-05-08T21:51:38.620Z,2.90
2023-05-08T21:56:40.374Z,3.03
2023-05-08T22:01:44.197Z,2.90
2023-05-08T22:06:45.994Z,3.30
2023-05-08T22:11:47.692Z,2.70
2023-05-08T22:16:50.935Z,2.67
2023-05-08T22:21:52.653Z,2.50
2023-05-08T22:26:54.411Z,3.00
2023-05-08T22:31:57.529Z,2.83
2023-05-08T22:36:59.252Z,3.03
2023-05-08T22:42:02.037Z,3.00
2023-05-08T22:47:05.554Z,3.50
2023-05-08T22:52:07.478Z,3.20
2023-05-08T22:57:09.232Z,2.93
2023-05-08T23:02:12.262Z,3.00
2023-05-08T23:07:13.929Z,3.23
2023-05-08T23:12:15.714Z,2.93
2023-05-08T23:17:18.752Z,3.10
2023-05-08T23:22:20.543Z,3.60
2023-05-08T23:27:22.257Z,3.60
2023-05-08T23:32:25.312Z,3.20
2023-05-08T23:37:27.022Z,3.30
2023-05-08T23:42:28.747Z,3.27
2023-05-08T23:47:31.880Z,3.20
2023-05-08T23:52:33.592Z,3.60
2023-05-08T23:57:35.583Z,3.80
